Time;durP1;ratioP1;P1;durP2;ratioP2;P2;SDS_P1;SDS_P2;PMS_P1;PMS_P2;Temp;Humidity;BMP_temperature;BMP_pressure;BME280_temperature;BME280_humidity;BME280_pressure;Samples;Min_cycle;Max_cycle;Signal;HPM_P1;HPM_P2
2023/01/14 00:02:05;;;;;;;31.02;2.97;;;;;;;3.32;89.92;96702.34;5039194;28;20049;-84
2023/01/14 00:04:31;;;;;;;17.35;1.95;;;;;;;3.38;89.78;96700.47;5039381;28;20037;-90
2023/01/14 00:06:58;;;;;;;12.25;1.23;;;;;;;3.46;89.45;96696.47;5036074;28;20049;-89
2023/01/14 00:09:27;;;;;;;35.03;3.15;;;;;;;3.40;89.78;96696.47;5029499;28;20510;-88
2023/01/14 00:11:53;;;;;;;13.30;1.33;;;;;;;3.44;89.69;96690.53;5032669;28;20563;-89
2023/01/14 00:14:23;;;;;;;16.77;1.80;;;;;;;3.43;89.81;96688.91;5038688;28;20537;-88
2023/01/14 00:16:51;;;;;;;22.48;2.17;;;;;;;3.45;89.72;96689.47;5038032;28;20122;-91
2023/01/14 00:19:18;;;;;;;33.78;3.22;;;;;;;3.47;89.76;96687.31;5038719;28;20053;-90
2023/01/14 00:21:45;;;;;;;23.02;2.10;;;;;;;3.46;89.89;96685.72;5036244;28;20087;-90
2023/01/14 00:24:12;;;;;;;21.35;2.33;;;;;;;3.48;90.10;96683.56;5037991;28;20060;-88
2023/01/14 00:26:38;;;;;;;23.23;2.10;;;;;;;3.50;89.87;96681.38;5038525;28;20533;-91
2023/01/14 00:29:05;;;;;;;39.53;3.15;;;;;;;3.49;90.01;96677.09;5036032;28;20057;-90
2023/01/14 00:31:33;;;;;;;30.73;2.80;;;;;;;3.51;90.12;96683.03;5032528;28;20049;-88
2023/01/14 00:34:00;;;;;;;18.33;1.83;;;;;;;3.65;89.65;96678.75;5040144;28;20049;-89
2023/01/14 00:36:28;;;;;;;22.73;2.17;;;;;;;3.72;89.35;96684.72;5039622;28;20041;-89
2023/01/14 00:38:55;;;;;;;23.15;2.08;;;;;;;3.78;89.20;96685.53;5039238;28;20053;-87
2023/01/14 00:41:23;;;;;;;27.88;2.78;;;;;;;3.56;89.56;96681.16;5029114;28;20057;-90
2023/01/14 00:43:51;;;;;;;22.40;2.55;;;;;;;3.61;89.71;96691.16;5035453;28;20056;-88
2023/01/14 00:46:20;;;;;;;27.23;2.58;;;;;;;3.62;89.55;96692.75;5037849;28;20232;-89
2023/01/14 00:48:48;;;;;;;22.08;2.58;;;;;;;3.57;89.13;96681.97;5036947;28;20048;-86
2023/01/14 00:51:16;;;;;;;16.45;2.10;;;;;;;3.59;89.14;96693.28;5035777;28;20049;-89
2023/01/14 00:53:45;;;;;;;16.40;2.10;;;;;;;3.64;88.97;96687.91;5041462;28;20441;-88
2023/01/14 00:56:12;;;;;;;28.60;3.67;;;;;;;3.65;88.56;96686.81;5040077;28;20053;-92
2023/01/14 00:58:39;;;;;;;10.20;1.48;;;;;;;3.73;88.15;96691.69;5039068;28;20635;-89
2023/01/14 01:01:05;;;;;;;18.98;2.15;;;;;;;3.74;87.73;96685.25;5036885;28;20045;-87
2023/01/14 01:03:33;;;;;;;17.63;2.13;;;;;;;3.67;87.75;96687.38;5034177;28;20041;-88
2023/01/14 01:06:01;;;;;;;15.65;1.77;;;;;;;3.72;87.63;96678.50;5038544;28;20423;-87
2023/01/14 01:08:27;;;;;;;16.58;1.92;;;;;;;3.68;87.06;96683.63;5038899;28;20041;-90
2023/01/14 01:10:56;;;;;;;23.88;2.58;;;;;;;3.70;87.42;96686.03;5037179;28;20073;-82
2023/01/14 01:13:23;;;;;;;18.92;2.13;;;;;;;3.72;86.89;96679.31;5039232;28;20060;-84
2023/01/14 01:15:51;;;;;;;26.67;2.88;;;;;;;3.75;86.34;96684.16;5040321;28;20053;-82
2023/01/14 01:18:17;;;;;;;21.00;2.38;;;;;;;3.85;86.47;96689.56;5040217;28;20049;-85
2023/01/14 01:20:44;;;;;;;15.35;1.75;;;;;;;3.92;86.42;96690.13;5037936;28;20045;-88
2023/01/14 01:23:13;;;;;;;25.52;2.75;;;;;;;3.91;86.08;96693.91;5037229;28;20049;-87
2023/01/14 01:25:39;;;;;;;18.75;2.38;;;;;;;3.82;85.48;96698.19;5038396;28;20056;-81
2023/01/14 01:28:06;;;;;;;28.20;2.85;;;;;;;3.80;86.00;96686.88;5040476;28;20067;-82
2023/01/14 01:30:33;;;;;;;20.77;2.33;;;;;;;3.74;85.32;96687.94;5039404;28;20041;-82
2023/01/14 01:33:00;;;;;;;21.77;2.33;;;;;;;3.68;85.64;96678.22;5042264;28;20049;-81
2023/01/14 01:35:27;;;;;;;14.38;1.65;;;;;;;3.61;86.03;96689.25;5042599;28;20045;-86
2023/01/14 01:37:54;;;;;;;21.10;2.15;;;;;;;3.61;85.80;96693.84;5045703;28;20053;-84
2023/01/14 01:40:22;;;;;;;29.20;2.92;;;;;;;3.66;85.37;96708.13;5034027;28;20045;-84
2023/01/14 01:42:58;;;;;;;14.82;2.05;;;;;;;3.65;85.50;96700.28;5044033;28;20042;-84
2023/01/14 01:45:42;;;;;;;7.15;1.17;;;;;;;3.63;85.75;96700.56;5041129;28;20113;-84
2023/01/14 01:48:13;;;;;;;11.57;1.98;;;;;;;3.57;85.30;96698.94;5048093;28;20041;-89
2023/01/14 01:50:40;;;;;;;10.27;1.52;;;;;;;3.52;85.74;96700.81;5044730;28;20045;-86
2023/01/14 01:53:08;;;;;;;17.55;2.30;;;;;;;3.50;85.90;96702.94;5048511;28;20033;-84
2023/01/14 01:55:39;;;;;;;13.77;1.95;;;;;;;3.39;86.57;96704.78;5047431;28;20045;-87
2023/01/14 01:58:06;;;;;;;16.83;2.70;;;;;;;3.33;86.78;96693.19;5041203;28;20057;-83
2023/01/14 02:00:33;;;;;;;13.20;2.10;;;;;;;3.26;86.75;96708.78;5035521;28;20047;-88
2023/01/14 02:03:02;;;;;;;11.13;1.75;;;;;;;3.25;87.18;96714.44;5035279;28;20057;-82
2023/01/14 02:05:29;;;;;;;17.55;2.78;;;;;;;3.22;87.08;96723.81;5035376;28;20041;-86
2023/01/14 02:07:58;;;;;;;12.48;1.83;;;;;;;3.21;87.33;96724.91;5036199;28;20058;-86
2023/01/14 02:10:35;;;;;;;15.45;2.50;;;;;;;3.29;87.24;96724.41;5035421;28;20049;-84
2023/01/14 02:13:20;;;;;;;11.93;2.33;;;;;;;3.37;86.53;96725.78;5039943;28;20045;-85
2023/01/14 02:15:58;;;;;;;17.75;2.30;;;;;;;3.39;86.20;96729.84;5043925;28;20105;-85
2023/01/14 02:18:38;;;;;;;6.63;1.70;;;;;;;3.37;86.18;96731.97;5037030;28;20418;-82
2023/01/14 02:21:13;;;;;;;5.28;2.00;;;;;;;3.45;85.86;96727.16;5043312;28;20469;-86
2023/01/14 02:24:12;;;;;;;6.88;1.45;;;;;;;3.45;85.98;96732.56;5043303;28;20045;-84
2023/01/14 02:26:56;;;;;;;8.43;1.85;;;;;;;3.38;86.43;96733.59;5042190;28;20071;-83
2023/01/14 02:29:43;;;;;;;4.97;1.75;;;;;;;3.33;86.97;96736.25;5037898;28;20050;-90
2023/01/14 02:32:16;;;;;;;5.82;1.85;;;;;;;3.29;87.26;96720.88;5038773;28;20049;-90
2023/01/14 02:34:50;;;;;;;6.38;1.70;;;;;;;3.21;87.36;96716.03;5037584;28;20061;-90
2023/01/14 02:37:25;;;;;;;6.43;1.95;;;;;;;3.31;87.48;96733.03;5036473;28;20049;-87
2023/01/14 02:39:59;;;;;;;6.47;1.95;;;;;;;3.32;87.22;96733.81;5034956;28;20045;-91
2023/01/14 02:45:25;;;;;;;6.10;1.77;;;;;;;3.26;87.70;96730.31;5034337;28;20056;-89
2023/01/14 02:47:53;;;;;;;4.85;1.50;;;;;;;3.17;87.68;96715.72;5036550;28;20045;-90
2023/01/14 02:50:20;;;;;;;6.60;1.80;;;;;;;3.21;87.88;96716.03;5035167;28;20101;-89
2023/01/14 02:52:46;;;;;;;8.68;1.80;;;;;;;3.21;87.95;96722.22;5037089;28;20053;-89
2023/01/14 02:55:28;;;;;;;13.02;2.78;;;;;;;3.23;87.79;96719.25;5027274;28;20514;-85
2023/01/14 02:58:17;;;;;;;6.18;1.80;;;;;;;3.25;87.96;96723.31;5047205;28;20049;-89
2023/01/14 03:00:54;;;;;;;8.07;2.20;;;;;;;3.26;87.94;96722.22;5035173;28;20045;-91
2023/01/14 03:03:36;;;;;;;8.60;1.58;;;;;;;3.23;88.53;96722.75;5036414;28;20080;-89
2023/01/14 03:06:17;;;;;;;7.50;1.75;;;;;;;3.35;88.40;96728.75;5036928;28;20053;-87
2023/01/14 03:08:51;;;;;;;7.82;1.75;;;;;;;3.28;88.19;96728.16;5036456;28;20084;-88
2023/01/14 03:11:18;;;;;;;6.20;2.30;;;;;;;3.27;88.64;96736.50;5028136;28;20056;-88
2023/01/14 03:13:50;;;;;;;7.28;2.08;;;;;;;3.28;88.44;96732.72;5033455;28;20057;-88
2023/01/14 03:16:24;;;;;;;6.90;1.65;;;;;;;3.39;88.07;96729.00;5036399;28;20060;-88
2023/01/14 03:18:57;;;;;;;13.25;2.88;;;;;;;3.30;88.82;96734.09;5036880;28;20044;-89
2023/01/14 03:21:26;;;;;;;5.95;1.95;;;;;;;3.23;89.07;96738.88;5027794;28;20046;-88
2023/01/14 03:23:56;;;;;;;7.97;1.95;;;;;;;3.25;89.02;96742.16;5035610;28;20430;-89
2023/01/14 03:26:27;;;;;;;5.95;1.92;;;;;;;3.29;88.97;96737.03;5035405;28;20045;-88
2023/01/14 03:28:55;;;;;;;9.23;2.72;;;;;;;3.29;88.98;96735.19;5036254;28;20045;-88
2023/01/14 03:31:27;;;;;;;4.60;1.20;;;;;;;3.38;89.00;96733.59;5027521;28;20057;-88
2023/01/14 03:33:57;;;;;;;5.78;1.65;;;;;;;3.37;88.82;96717.69;5036219;28;20060;-85
2023/01/14 03:36:27;;;;;;;9.48;2.03;;;;;;;3.38;88.98;96730.09;5027486;28;20041;-88
2023/01/14 03:39:00;;;;;;;6.80;1.90;;;;;;;3.45;88.80;96721.78;5036092;28;20045;-86
2023/01/14 03:44:16;;;;;;;7.82;2.38;;;;;;;3.52;88.27;96723.16;5034802;28;20099;-84
2023/01/14 03:46:44;;;;;;;6.88;1.55;;;;;;;3.46;89.05;96728.78;5036676;28;20060;-90
2023/01/14 03:49:11;;;;;;;8.85;2.55;;;;;;;3.50;88.91;96729.84;5034118;28;20041;-86
2023/01/14 03:51:48;;;;;;;3.95;1.35;;;;;;;3.59;89.09;96728.28;5034447;28;20462;-86
2023/01/14 03:54:23;;;;;;;6.15;2.28;;;;;;;3.74;88.30;96728.34;5036566;28;20525;-86
2023/01/14 03:56:57;;;;;;;4.75;1.85;;;;;;;3.71;88.30;96736.97;5038112;28;20069;-88
2023/01/14 03:59:29;;;;;;;7.35;1.60;;;;;;;3.75;87.80;96727.25;5027581;28;20418;-90
2023/01/14 04:02:03;;;;;;;3.80;1.50;;;;;;;3.87;87.53;96727.03;5038303;28;20052;-89
2023/01/14 04:04:31;;;;;;;6.70;2.00;;;;;;;3.88;87.51;96729.47;5031778;28;20463;-88
2023/01/14 04:06:58;;;;;;;6.03;1.83;;;;;;;3.81;87.47;96728.91;5039068;28;20060;-88
2023/01/14 04:09:24;;;;;;;5.65;1.92;;;;;;;3.79;87.81;96722.97;5027581;28;20038;-87
2023/01/14 04:11:51;;;;;;;5.85;2.08;;;;;;;3.70;88.31;96724.53;5038666;28;20041;-84
2023/01/14 04:17:03;;;;;;;4.53;2.58;;;;;;;3.68;88.56;96726.69;5038570;28;20060;-87
2023/01/14 04:19:29;;;;;;;5.50;2.00;;;;;;;3.69;88.67;96722.94;5036782;28;20608;-87
2023/01/14 04:21:56;;;;;;;15.25;2.00;;;;;;;3.68;88.73;96724.00;5038299;28;20049;-85
2023/01/14 04:24:22;;;;;;;14.32;2.08;;;;;;;3.68;88.70;96718.63;5037569;28;20060;-91
2023/01/14 04:26:49;;;;;;;23.40;2.63;;;;;;;3.69;88.75;96714.84;5037581;28;20060;-89
2023/01/14 04:29:15;;;;;;;24.67;3.35;;;;;;;3.68;88.66;96715.94;5036979;28;20044;-90
2023/01/14 04:31:42;;;;;;;12.32;2.00;;;;;;;3.74;88.50;96720.25;5037869;28;20057;-89
2023/01/14 04:34:10;;;;;;;26.83;2.92;;;;;;;3.68;89.16;96715.94;5037178;28;20045;-88
2023/01/14 04:36:37;;;;;;;22.20;2.55;;;;;;;3.67;89.04;96714.31;5032981;28;20052;-84
2023/01/14 04:39:03;;;;;;;27.63;3.35;;;;;;;3.69;89.13;96717.53;5035672;28;20053;-90
2023/01/14 04:44:14;;;;;;;7.35;2.13;;;;;;;3.74;89.00;96714.06;5038241;28;20099;-86
2023/01/14 04:46:42;;;;;;;6.28;2.00;;;;;;;3.76;88.84;96712.72;5039079;28;20057;-87
2023/01/14 04:49:09;;;;;;;14.00;3.78;;;;;;;3.75;89.07;96715.66;5036517;28;20049;-85
2023/01/14 04:51:36;;;;;;;11.68;2.22;;;;;;;3.78;88.99;96713.25;5038462;28;20049;-86
2023/01/14 04:54:03;;;;;;;17.90;2.55;;;;;;;3.75;89.44;96711.09;5038107;28;20883;-87
2023/01/14 04:56:29;;;;;;;16.52;2.33;;;;;;;3.72;89.44;96711.63;5038559;28;20049;-88
2023/01/14 04:58:57;;;;;;;23.80;2.55;;;;;;;3.76;89.53;96706.50;5037898;28;20045;-86
2023/01/14 05:01:24;;;;;;;8.05;2.03;;;;;;;3.73;89.59;96710.56;5044901;28;20049;-85
2023/01/14 05:03:51;;;;;;;7.85;2.08;;;;;;;3.77;89.83;96703.56;5034560;28;20046;-88
2023/01/14 05:06:19;;;;;;;6.45;1.27;;;;;;;3.80;89.72;96708.41;5038071;28;20053;-88
2023/01/14 05:08:47;;;;;;;5.22;1.80;;;;;;;3.91;89.65;96710.06;5039037;28;20053;-89
2023/01/14 05:11:14;;;;;;;7.93;2.70;;;;;;;3.85;89.22;96711.13;5037456;28;20105;-86
2023/01/14 05:13:40;;;;;;;7.35;1.63;;;;;;;3.92;89.24;96716.28;5039925;28;20421;-86
2023/01/14 05:16:07;;;;;;;4.45;1.65;;;;;;;4.06;88.59;96711.16;5039933;28;20045;-83
2023/01/14 05:18:34;;;;;;;4.13;1.58;;;;;;;4.13;88.77;96723.31;5034454;28;20053;-86
2023/01/14 05:21:00;;;;;;;8.57;2.03;;;;;;;4.17;88.35;96723.56;5038945;28;20045;-82
2023/01/14 05:23:28;;;;;;;5.78;1.70;;;;;;;4.21;87.97;96716.56;5039613;28;20045;-85
2023/01/14 05:25:55;;;;;;;5.55;1.50;;;;;;;4.28;87.49;96714.44;5036461;28;20054;-89
2023/01/14 05:28:21;;;;;;;3.38;1.33;;;;;;;4.38;86.69;96719.81;5035668;28;20052;-90
2023/01/14 05:30:48;;;;;;;3.53;1.60;;;;;;;4.20;86.51;96714.94;5038173;28;20046;-89
2023/01/14 05:33:15;;;;;;;7.35;1.77;;;;;;;4.39;86.33;96713.34;5038913;28;20053;-86
2023/01/14 05:35:42;;;;;;;6.38;1.75;;;;;;;4.22;86.42;96707.41;5039601;28;20049;-86
2023/01/14 05:38:09;;;;;;;4.95;1.70;;;;;;;4.13;87.06;96711.72;5038201;28;20042;-87
2023/01/14 05:40:37;;;;;;;5.93;1.63;;;;;;;3.91;87.62;96699.31;5037650;28;20514;-88
2023/01/14 05:45:51;;;;;;;4.93;1.90;;;;;;;3.77;88.69;96700.88;5026499;28;20052;-89
2023/01/14 05:48:21;;;;;;;7.57;1.58;;;;;;;3.72;89.19;96705.44;5038643;28;20109;-87
2023/01/14 05:50:50;;;;;;;9.35;2.45;;;;;;;3.66;89.16;96712.69;5041276;28;20044;-87
2023/01/14 05:53:17;;;;;;;5.43;1.60;;;;;;;3.61;89.47;96710.00;5044257;28;20041;-86
2023/01/14 05:55:45;;;;;;;5.25;1.95;;;;;;;3.59;89.51;96712.13;5041306;28;20053;-86
2023/01/14 05:58:12;;;;;;;9.50;2.35;;;;;;;3.62;89.15;96712.41;5043829;28;20041;-87
2023/01/14 06:06:23;;;;;;;7.40;2.25;;;;;;;3.58;89.33;96707.81;5037415;28;20051;-88
2023/01/14 06:08:50;;;;;;;9.40;2.38;;;;;;;3.61;89.04;96715.38;5037066;28;20061;-88
2023/01/14 06:11:20;;;;;;;8.02;2.17;;;;;;;3.64;88.97;96710.25;5030168;28;20041;-85
2023/01/14 06:13:47;;;;;;;7.63;1.98;;;;;;;3.72;88.70;96716.22;5036314;28;20050;-81
2023/01/14 06:16:14;;;;;;;7.95;2.05;;;;;;;3.71;88.64;96709.19;5038836;28;20049;-83
2023/01/14 06:18:42;;;;;;;7.93;2.08;;;;;;;3.64;88.73;96698.69;5033969;28;20053;-84
2023/01/14 06:21:10;;;;;;;7.50;2.20;;;;;;;3.62;88.78;96706.22;5031687;28;20095;-84
2023/01/14 06:23:37;;;;;;;6.25;1.63;;;;;;;3.63;88.84;96702.44;5029683;28;20057;-88
2023/01/14 06:26:05;;;;;;;7.88;2.50;;;;;;;3.59;88.72;96701.34;5029123;28;20042;-84
2023/01/14 06:28:32;;;;;;;7.40;1.20;;;;;;;3.60;88.63;96687.66;5032413;28;20049;-87
2023/01/14 06:30:59;;;;;;;9.10;2.45;;;;;;;3.52;89.19;96701.59;5034204;28;20049;-82
2023/01/14 06:33:25;;;;;;;6.07;1.55;;;;;;;3.50;89.23;96702.94;5040682;28;20113;-84
2023/01/14 06:35:52;;;;;;;4.82;1.88;;;;;;;3.47;89.45;96698.09;5043733;28;20045;-82
2023/01/14 06:38:19;;;;;;;9.27;2.20;;;;;;;3.47;89.86;96703.47;5040410;28;20064;-87
2023/01/14 06:40:45;;;;;;;6.45;2.10;;;;;;;3.51;89.43;96704.56;5039520;28;20045;-82
2023/01/14 06:43:12;;;;;;;5.05;2.42;;;;;;;3.52;89.42;96695.41;5037211;28;20137;-85
2023/01/14 06:45:40;;;;;;;3.38;1.75;;;;;;;3.50;89.71;96694.84;5044382;28;20072;-81
2023/01/14 06:48:06;;;;;;;5.25;1.48;;;;;;;3.52;89.30;96703.50;5044927;28;20245;-85
2023/01/14 06:50:33;;;;;;;12.43;2.33;;;;;;;3.51;89.33;96705.38;5039106;28;20034;-82
2023/01/14 06:53:01;;;;;;;7.63;1.42;;;;;;;3.45;89.31;96700.25;5045792;28;20056;-81
2023/01/14 06:55:27;;;;;;;6.38;1.60;;;;;;;3.43;89.49;96697.00;5045826;28;20048;-85
2023/01/14 06:57:54;;;;;;;3.80;1.60;;;;;;;3.39;89.27;96700.22;5046581;28;20045;-85
2023/01/14 07:00:21;;;;;;;3.78;2.10;;;;;;;3.35;88.94;96688.38;5036364;28;20045;-83
2023/01/14 07:02:48;;;;;;;4.78;1.67;;;;;;;3.32;88.97;96690.75;5047314;28;20045;-89
2023/01/14 07:05:16;;;;;;;4.55;1.92;;;;;;;3.23;89.13;96682.38;5037075;28;20049;-88
2023/01/14 07:07:45;;;;;;;9.00;2.60;;;;;;;3.18;89.68;96684.25;5035485;28;20049;-82
2023/01/14 07:10:11;;;;;;;7.85;2.13;;;;;;;3.19;89.79;96677.81;5031244;28;20045;-84
2023/01/14 07:12:38;;;;;;;5.13;1.40;;;;;;;3.13;90.23;96676.94;5034099;28;20060;-87
2023/01/14 07:15:05;;;;;;;4.60;2.35;;;;;;;3.07;90.66;96678.00;5032861;28;20053;-80
2023/01/14 07:17:31;;;;;;;5.82;2.58;;;;;;;3.08;90.65;96679.63;5032373;28;20057;-86
2023/01/14 07:19:59;;;;;;;6.50;2.15;;;;;;;3.10;90.61;96680.97;5030880;28;20414;-86
2023/01/14 07:22:26;;;;;;;6.43;3.05;;;;;;;3.14;90.68;96683.97;5031276;28;20071;-85
2023/01/14 07:24:52;;;;;;;10.40;2.63;;;;;;;3.19;90.94;96686.69;5031800;28;20053;-85
2023/01/14 07:27:19;;;;;;;7.50;2.70;;;;;;;3.22;90.95;96672.69;5030861;28;20092;-81
2023/01/14 07:29:45;;;;;;;8.23;2.78;;;;;;;3.30;90.75;96671.38;5030675;28;20037;-84
2023/01/14 07:32:12;;;;;;;8.95;2.83;;;;;;;3.27;90.65;96651.19;5030776;28;20049;-83
2023/01/14 07:34:38;;;;;;;7.80;3.58;;;;;;;3.32;90.52;96651.19;5032714;28;20429;-82
2023/01/14 07:37:06;;;;;;;6.55;2.40;;;;;;;3.34;90.68;96651.75;5026909;28;20049;-79
2023/01/14 07:39:33;;;;;;;8.00;2.92;;;;;;;3.41;90.20;96651.50;5034806;28;20050;-84
2023/01/14 07:41:59;;;;;;;5.05;2.15;;;;;;;3.46;90.00;96648.03;5028748;28;20057;-81
2023/01/14 07:44:26;;;;;;;6.93;2.65;;;;;;;3.52;89.64;96644.25;5034892;28;20037;-84
2023/01/14 07:46:54;;;;;;;6.43;2.33;;;;;;;3.55;89.40;96644.53;5029075;28;20050;-81
2023/01/14 07:49:21;;;;;;;5.18;2.00;;;;;;;3.62;89.27;96647.78;5033669;28;20045;-87
2023/01/14 07:51:47;;;;;;;6.22;2.45;;;;;;;3.71;88.62;96648.09;5034544;28;20123;-83
2023/01/14 07:54:15;;;;;;;6.55;2.08;;;;;;;3.74;88.01;96644.84;5035315;28;20045;-84
2023/01/14 07:56:42;;;;;;;9.43;1.80;;;;;;;3.79;88.19;96647.53;5032537;28;20053;-83
2023/01/14 07:59:08;;;;;;;6.55;2.30;;;;;;;3.86;87.23;96640.03;5029928;28;20390;-81
2023/01/14 08:01:35;;;;;;;5.68;2.00;;;;;;;3.81;87.01;96645.41;5031220;28;20052;-83
2023/01/14 08:04:02;;;;;;;7.53;2.53;;;;;;;3.90;86.36;96638.38;5030776;28;20524;-87
2023/01/14 08:06:29;;;;;;;5.47;2.00;;;;;;;4.13;85.75;96637.06;5029887;28;20556;-85
2023/01/14 08:08:58;;;;;;;7.50;3.63;;;;;;;4.34;83.88;96632.47;5029957;28;20049;-83
2023/01/14 08:11:26;;;;;;;9.23;4.05;;;;;;;4.79;82.80;96632.66;5026469;28;20536;-85
2023/01/14 08:13:52;;;;;;;11.43;4.13;;;;;;;5.32;78.91;96627.59;5029134;28;20072;-84
2023/01/14 08:16:19;;;;;;;6.68;2.63;;;;;;;6.06;76.18;96618.53;5025440;28;20056;-87
2023/01/14 08:18:45;;;;;;;6.53;2.05;;;;;;;5.90;74.65;96620.50;5031317;28;20132;-85
2023/01/14 08:21:12;;;;;;;7.18;2.22;;;;;;;5.71;75.60;96619.56;5029021;28;20057;-84
2023/01/14 08:23:39;;;;;;;9.30;2.58;;;;;;;5.54;75.13;96621.84;5023848;28;20057;-85
2023/01/14 08:26:08;;;;;;;12.68;2.53;;;;;;;5.39;75.78;96614.63;5029535;28;20061;-80
2023/01/14 08:28:37;;;;;;;5.25;1.70;;;;;;;5.25;76.15;96617.09;5032491;28;20090;-85
2023/01/14 08:31:04;;;;;;;4.97;1.98;;;;;;;5.27;76.05;96620.31;5031857;28;20056;-81
2023/01/14 08:33:31;;;;;;;5.32;1.65;;;;;;;5.10;76.92;96628.75;5032377;28;20044;-83
2023/01/14 08:36:05;;;;;;;6.00;2.00;;;;;;;4.94;77.96;96630.72;5032243;28;20049;-82
2023/01/14 08:38:32;;;;;;;8.50;2.28;;;;;;;4.86;78.63;96627.78;5024575;28;20486;-84
2023/01/14 08:40:59;;;;;;;8.43;1.98;;;;;;;4.78;78.50;96621.06;5030529;28;20064;-82
2023/01/14 08:43:25;;;;;;;8.95;1.80;;;;;;;4.91;78.72;96620.50;5032336;28;20514;-81
2023/01/14 08:45:53;;;;;;;5.45;1.83;;;;;;;5.03;78.26;96611.28;5030731;28;20059;-89
2023/01/14 08:48:19;;;;;;;5.50;1.73;;;;;;;5.13;77.68;96605.81;5033314;28;20042;-84
2023/01/14 08:50:46;;;;;;;8.65;1.90;;;;;;;5.04;77.40;96600.19;5030397;28;20048;-85
2023/01/14 08:53:12;;;;;;;4.93;2.30;;;;;;;5.15;77.36;96592.84;5034536;28;20053;-81
2023/01/14 08:55:39;;;;;;;7.45;2.03;;;;;;;5.07;76.98;96596.13;5029989;28;20068;-83
2023/01/14 08:58:06;;;;;;;11.13;3.75;;;;;;;5.13;76.86;96595.03;5033198;28;20560;-83
2023/01/14 09:00:33;;;;;;;6.63;1.98;;;;;;;5.26;76.75;96594.41;5034528;28;20041;-82
2023/01/14 09:03:01;;;;;;;5.88;1.40;;;;;;;5.11;77.64;96580.97;5033378;28;20053;-85
2023/01/14 09:05:27;;;;;;;3.63;1.13;;;;;;;5.34;76.36;96580.34;5030340;28;20052;-84
2023/01/14 09:18:58;;;;;;;13.45;2.67;;;;;;;5.75;73.99;96570.09;5037439;28;20113;-81
2023/01/14 09:21:24;;;;;;;8.35;2.95;;;;;;;5.83;73.70;96565.94;5028413;28;20052;-82
2023/01/14 09:23:51;;;;;;;7.55;2.40;;;;;;;5.88;72.92;96571.31;5034650;28;20076;-86
2023/01/14 09:26:20;;;;;;;9.55;2.67;;;;;;;5.87;72.60;96556.19;5028166;28;20054;-82
2023/01/14 09:28:47;;;;;;;6.50;1.40;;;;;;;6.07;72.75;96560.66;5036456;28;20046;-88
2023/01/14 09:31:13;;;;;;;4.38;1.90;;;;;;;6.13;72.31;96564.94;5032577;28;20053;-83
2023/01/14 09:33:40;;;;;;;8.00;1.45;;;;;;;6.03;71.65;96573.13;5028682;28;20054;-82
2023/01/14 09:36:08;;;;;;;8.13;2.03;;;;;;;6.18;71.46;96567.59;5029618;28;20049;-82
2023/01/14 09:38:35;;;;;;;5.38;1.80;;;;;;;6.24;70.60;96563.75;5025180;28;20754;-82
2023/01/14 09:41:02;;;;;;;5.78;1.80;;;;;;;6.40;70.22;96558.19;5029208;28;20053;-78
2023/01/14 09:43:31;;;;;;;8.65;2.35;;;;;;;6.45;69.97;96567.06;5026590;28;20037;-80
2023/01/14 09:46:01;;;;;;;9.45;2.40;;;;;;;6.46;69.12;96557.84;5029430;28;20045;-78
2023/01/14 09:48:30;;;;;;;5.97;1.80;;;;;;;6.62;68.64;96552.28;5020565;28;20042;-78
2023/01/14 09:51:04;;;;;;;7.68;1.50;;;;;;;6.80;68.02;96538.00;5026505;28;20766;-79
2023/01/14 09:53:53;;;;;;;7.13;1.63;;;;;;;7.02;65.73;96543.66;5022650;28;20052;-79
2023/01/14 09:56:24;;;;;;;5.97;1.65;;;;;;;7.40;65.52;96532.88;5032383;28;20053;-77
2023/01/14 09:58:54;;;;;;;2.90;1.23;;;;;;;7.55;64.70;96529.94;5026545;28;20053;-82
2023/01/14 10:01:29;;;;;;;7.85;1.77;;;;;;;7.49;62.87;96531.09;5025835;28;20080;-83
2023/01/14 10:04:04;;;;;;;6.03;1.40;;;;;;;7.69;63.32;96523.78;5024482;28;20518;-80
2023/01/14 10:06:31;;;;;;;6.70;1.40;;;;;;;7.79;62.43;96524.41;5020572;28;20048;-78
2023/01/14 10:09:04;;;;;;;4.75;1.50;;;;;;;7.82;63.05;96523.00;5026997;28;20056;-76
2023/01/14 10:11:37;;;;;;;3.38;1.70;;;;;;;7.92;63.45;96517.41;5018891;28;20056;-81
2023/01/14 10:14:11;;;;;;;4.38;1.30;;;;;;;8.00;61.86;96502.41;5036815;28;20109;-81
2023/01/14 10:16:41;;;;;;;4.75;1.50;;;;;;;8.16;61.86;96505.66;5030343;28;20073;-79
2023/01/14 10:19:15;;;;;;;6.80;1.88;;;;;;;8.38;60.79;96508.50;5025378;28;20045;-79
2023/01/14 10:21:46;;;;;;;3.50;1.30;;;;;;;8.41;58.96;96507.13;5023758;28;20580;-80
2023/01/14 10:24:17;;;;;;;5.40;1.27;;;;;;;8.32;58.22;96498.84;5027522;28;20052;-81
2023/01/14 10:26:45;;;;;;;2.17;0.80;;;;;;;8.41;57.37;96490.84;5028883;28;20057;-81
2023/01/14 10:29:15;;;;;;;4.72;1.63;;;;;;;8.29;57.65;96483.16;5024291;28;20053;-79
2023/01/14 10:31:44;;;;;;;5.03;1.58;;;;;;;8.11;58.97;96477.50;5031705;28;20042;-79
2023/01/14 10:34:13;;;;;;;4.85;1.50;;;;;;;8.14;59.78;96469.84;5029078;28;20053;-81
2023/01/14 10:36:40;;;;;;;5.30;2.08;;;;;;;8.23;58.44;96468.88;5034007;28;20041;-82
2023/01/14 10:39:07;;;;;;;4.15;1.42;;;;;;;8.32;57.41;96469.78;5032252;28;20068;-81
2023/01/14 10:41:50;;;;;;;5.18;1.10;;;;;;;8.33;56.74;96467.88;5035026;28;20053;-79
2023/01/14 10:44:22;;;;;;;2.67;1.00;;;;;;;8.27;56.90;96452.81;5033594;28;20054;-77
2023/01/14 10:46:49;;;;;;;4.03;1.70;;;;;;;8.32;57.16;96445.38;5033339;28;20469;-79
2023/01/14 10:49:19;;;;;;;4.15;2.00;;;;;;;8.19;56.54;96448.88;5031893;28;20049;-81
2023/01/14 10:51:49;;;;;;;4.82;2.00;;;;;;;8.34;56.85;96442.34;5032971;28;20430;-80
2023/01/14 10:54:18;;;;;;;6.13;1.77;;;;;;;8.51;55.83;96434.47;5029821;28;20057;-79
2023/01/14 10:56:51;;;;;;;5.97;1.50;;;;;;;8.33;56.52;96429.91;5024139;28;20180;-79
2023/01/14 10:59:25;;;;;;;;;;;;;;;8.28;56.67;96432.72;5027676;28;20049;-79
2023/01/14 11:01:52;;;;;;;;;;;;;;;8.48;56.18;96426.91;5030673;28;19932;-77
2023/01/14 11:04:21;;;;;;;2.25;1.00;;;;;;;8.33;55.96;96421.75;5030911;28;19936;-80
2023/01/14 11:06:47;;;;;;;3.78;1.40;;;;;;;8.49;56.95;96417.66;5031068;28;20052;-80
2023/01/14 11:09:19;;;;;;;4.55;1.42;;;;;;;8.60;56.59;96413.63;5027237;28;20038;-81
2023/01/14 11:11:46;;;;;;;2.28;1.40;;;;;;;8.63;56.52;96407.59;5033362;28;20520;-79
2023/01/14 11:14:20;;;;;;;3.00;1.60;;;;;;;8.75;56.40;96406.25;5032519;28;20076;-78
2023/01/14 11:16:46;;;;;;;3.22;1.13;;;;;;;8.89;56.47;96396.19;5032350;28;20049;-84
2023/01/14 11:19:20;;;;;;;3.58;1.40;;;;;;;8.78;56.28;96389.38;5028651;28;20053;-77
2023/01/14 11:21:49;;;;;;;4.25;2.13;;;;;;;8.96;56.32;96382.97;5033330;28;20050;-79
2023/01/14 11:24:28;;;;;;;2.33;1.10;;;;;;;9.17;55.98;96374.34;5025439;28;20140;-79
2023/01/14 11:27:01;;;;;;;2.20;0.70;;;;;;;9.25;55.14;96357.31;5034054;28;20053;-78
2023/01/14 11:29:31;;;;;;;4.28;1.40;;;;;;;9.36;54.38;96348.59;5025733;28;20077;-77
2023/01/14 11:32:07;;;;;;;4.25;1.83;;;;;;;9.41;54.00;96344.97;5027834;28;20518;-76
2023/01/14 11:34:37;;;;;;;3.50;1.80;;;;;;;9.49;54.19;96344.19;5021167;28;20084;-78
2023/01/14 11:37:06;;;;;;;3.65;1.77;;;;;;;9.50;54.24;96345.81;5042212;28;20057;-76
2023/01/14 11:39:34;;;;;;;6.15;2.13;;;;;;;9.62;54.02;96332.44;5044033;28;20041;-77
2023/01/14 11:42:02;;;;;;;2.63;1.60;;;;;;;9.51;53.96;96317.53;5040786;28;20049;-76
2023/01/14 11:44:31;;;;;;;4.53;1.25;;;;;;;9.63;55.33;96304.16;5041602;28;20139;-81
2023/01/14 11:47:14;;;;;;;3.95;1.60;;;;;;;9.67;54.90;96302.41;5045309;28;20059;-80
2023/01/14 11:49:41;;;;;;;5.15;1.98;;;;;;;9.61;54.35;96303.66;5038426;28;20033;-80
2023/01/14 11:52:19;;;;;;;3.53;2.25;;;;;;;9.54;54.80;96305.22;5039316;28;20057;-78
2023/01/14 11:54:47;;;;;;;5.82;2.10;;;;;;;9.58;54.81;96298.84;5044131;28;20049;-80
2023/01/14 11:57:16;;;;;;;4.88;2.10;;;;;;;9.62;55.29;96294.38;5034572;28;20057;-77
2023/01/14 11:59:45;;;;;;;6.68;2.10;;;;;;;9.67;55.09;96285.28;5032323;28;20053;-80
2023/01/14 12:02:17;;;;;;;33.65;5.03;;;;;;;9.66;54.41;96270.91;5030529;28;20061;-85
2023/01/14 12:04:48;;;;;;;3.47;1.95;;;;;;;9.52;56.17;96264.75;5035954;28;20053;-88
2023/01/14 12:07:20;;;;;;;10.32;3.25;;;;;;;9.47;56.15;96262.19;5030836;28;20045;-84
2023/01/14 12:09:53;;;;;;;4.57;2.90;;;;;;;9.29;57.22;96261.31;5034647;28;20418;-84
2023/01/14 12:12:25;;;;;;;7.07;2.70;;;;;;;8.88;58.23;96256.09;5033775;28;20061;-86
2023/01/14 12:17:50;;;;;;;33.27;4.07;;;;;;;9.03;58.83;96242.13;5030583;28;20409;-86
2023/01/14 12:20:19;;;;;;;4.67;2.70;;;;;;;9.02;59.22;96234.28;5031851;28;20083;-84
2023/01/14 12:22:52;;;;;;;4.18;2.42;;;;;;;9.04;59.45;96226.63;5033197;28;20288;-83